1990 BAOMAVO (1989364S05095)


On this page: IBTrACS data - Map and Plots - Positions - Intensities - Original source data

Summary

Start Dec 29
End Jan 9
Basin SI
LMI 85 kt
Sources jtwc_sh
reunion
neumann
In WMO? No
Previous storm 1989 JACK (WP)
Previous in basin 1990 ALIBERA (SI)
Concurrent storms 1990 ALIBERA (SI)
1990 BAOMAVO (SI)
1990 ROSITA (SI)
1990 KORYN (WP)
Next in basin 1990 ROSITA (SI)
Next storm 1990 ROSITA (SI)

top of page IBTrACS Data: File Access

Image of storm

top of page Plots:

Map of storm track will not appear if FTP is down
Time series of cyclone Maximum Sustained Wind will not appear if FTP is down
Time series of cyclone Minimum Central Pressure will not appear if FTP is down

top of page Track Data:Position

jtwc_sh reunion neumann
Date Lat Lon Lat Lon Lat Lon
1989-12-29 18:00:00 -5.0 95.0 -5.0 95.0
1989-12-30 00:00:00 -5.5 94.4 -5.5 94.4
1989-12-30 06:00:00 -6.0 93.9 -6.0 93.9
1989-12-30 12:00:00 -6.5 93.3 -6.5 93.3
1989-12-30 18:00:00 -7.0 92.6 -7.0 92.6
1989-12-31 00:00:00 -7.5 92.0 -7.5 92.0
1989-12-31 06:00:00 -7.9 91.4 -7.9 91.4
1989-12-31 12:00:00 -8.1 91.0 -8.1 91.0
1989-12-31 18:00:00 -8.3 90.6 -8.3 90.6
1990-01-01 00:00:00 -8.5 90.3 -8.5 90.3
1990-01-01 06:00:00 -8.7 90.0 -8.7 90.0
1990-01-01 12:00:00 -8.8 89.7 -8.8 89.7
1990-01-01 18:00:00 -9.0 89.5 -9.0 89.5
1990-01-02 00:00:00 -9.2 89.3 -9.2 89.3
1990-01-02 06:00:00 -9.5 89.1 -10.0 89.8 -9.5 89.1
1990-01-02 12:00:00 -10.0 89.0 -10.6 89.2 -10.0 89.0
1990-01-02 18:00:00 -10.7 88.9 -11.5 89.4 -10.7 88.9
1990-01-03 00:00:00 -11.6 88.5 -12.2 89.7 -11.6 88.5
1990-01-03 06:00:00 -12.4 88.0 -12.8 89.7 -12.4 88.0
1990-01-03 12:00:00 -13.1 87.3 -13.4 89.9 -13.1 87.3
1990-01-03 18:00:00 -13.7 86.5 -13.6 87.8 -13.7 86.5
1990-01-04 00:00:00 -14.2 85.5 -14.0 86.8 -14.2 85.5
1990-01-04 06:00:00 -14.7 85.0 -14.9 86.2 -14.7 85.0
1990-01-04 12:00:00 -15.3 84.9 -15.7 86.0 -15.3 84.9
1990-01-04 18:00:00 -16.0 84.7 -16.2 85.8 -16.0 84.7
jtwc_sh reunion neumann
1990-01-05 00:00:00 -16.6 84.7 -16.8 85.5 -16.6 84.7
1990-01-05 06:00:00 -17.4 84.6 -17.2 85.2 -17.4 84.6
1990-01-05 12:00:00 -18.2 84.4 -18.0 84.9 -18.2 84.4
1990-01-05 18:00:00 -19.2 84.3 -18.7 84.7 -19.2 84.3
1990-01-06 00:00:00 -20.4 84.2 -19.7 84.5 -20.4 84.2
1990-01-06 06:00:00 -21.9 84.2 -20.5 84.7 -21.9 84.2
1990-01-06 12:00:00 -23.6 84.4 -21.6 84.8 -23.6 84.4
1990-01-06 18:00:00 -25.1 84.8 -22.7 84.9 -25.1 84.8
1990-01-07 00:00:00 -26.2 85.1 -24.0 85.0 -26.2 85.1
1990-01-07 06:00:00 -27.0 85.8 -25.5 85.0 -27.0 85.8
1990-01-07 12:00:00 -27.7 86.6 -27.0 85.7 -27.7 86.6
1990-01-07 18:00:00 -28.5 87.3 -27.0 87.0 -28.5 87.3
1990-01-08 00:00:00 -29.5 87.6 -25.7 87.2 -29.5 87.6
1990-01-08 06:00:00 -30.5 88.0 -24.6 86.5 -30.5 88.0
1990-01-08 12:00:00 -31.5 88.4 -24.0 85.1 -31.5 88.4
1990-01-08 18:00:00 -23.4 83.9
1990-01-09 00:00:00 -22.8 82.8
1990-01-09 06:00:00 -22.2 81.8

top of pageTrack Data:Intensity

jtwc_sh reunion neumann
Date Wind Pres Wind Pres Wind Pres
1989-12-29 18:00:00 20. 20.
1989-12-30 00:00:00 20. 20.
1989-12-30 06:00:00 20. 20.
1989-12-30 12:00:00 20. 20.
1989-12-30 18:00:00 20. 20.
1989-12-31 00:00:00 20. 20.
1989-12-31 06:00:00 20. 20.
1989-12-31 12:00:00 20. 20.
1989-12-31 18:00:00 20. 20.
1990-01-01 00:00:00 20. 20.
1990-01-01 06:00:00 20. 20.
1990-01-01 12:00:00 20. 20.
1990-01-01 18:00:00 25. 25.
1990-01-02 00:00:00 25. 25.
1990-01-02 06:00:00 25. 28. 997. 25.
1990-01-02 12:00:00 30. 28. 997. 30.
1990-01-02 18:00:00 35. 28. 997. 35.
1990-01-03 00:00:00 40. 36. 991. 40.
1990-01-03 06:00:00 40. 36. 991. 40.
1990-01-03 12:00:00 45. 36. 991. 45.
1990-01-03 18:00:00 50. 36. 991. 50.
1990-01-04 00:00:00 50. 44. 984. 50.
1990-01-04 06:00:00 55. 52. 976. 55.
1990-01-04 12:00:00 65. 52. 976. 65.
1990-01-04 18:00:00 70. 52. 976. 70.
jtwc_sh reunion neumann
1990-01-05 00:00:00 75. 62. 966. 75.
1990-01-05 06:00:00 80. 72. 954. 80.
1990-01-05 12:00:00 85. 72. 954. 85.
1990-01-05 18:00:00 85. 72. 954. 85.
1990-01-06 00:00:00 85. 72. 954. 85.
1990-01-06 06:00:00 80. 82. 941. 80.
1990-01-06 12:00:00 80. 82. 941. 80.
1990-01-06 18:00:00 75. 82. 941. 75.
1990-01-07 00:00:00 60. 72. 954. 60.
1990-01-07 06:00:00 50. 62. 966. 50.
1990-01-07 12:00:00 40. 62. 976. 40.
1990-01-07 18:00:00 35. 62. 976. 35.
1990-01-08 00:00:00 35. 44. 984. 35.
1990-01-08 06:00:00 35. 44. 984. 35.
1990-01-08 12:00:00 35. 28. 997. 35.
1990-01-08 18:00:00
1990-01-09 00:00:00
1990-01-09 06:00:00

top of page Links to source data

Source Source file Format
jtwc_sh bsh091990.txt ATCF
reunion WMO-Best-Tracks.txt:Line=14769:baomavo WMO (old format)
neumann tracks.sh:Storm=877:BAOMAVO:BSH091990:JTWC HURDAT